Terminal Aerodrome Forecast
Issued by NWS Goodland, KS

Home | Current Version | Previous Version | Text Only | Print | Product List | Glossary On
Versions: 1 2 3 4 5 6 7 8 9 10
000
FTUS43 KGLD 281720
TAFGLD
TAF
KGLD 281720Z 2818/2918 VRB05KT P6SM BKN100
     FM291200 35008KT P6SM BKN050
     FM291500 01012G17KT P6SM VCSH SCT015 BKN025
      TEMPO 2916/2918 4SM -SN BR SCT007 BKN015=

USA.gov is the U.S. government's official web portal to all federal, state and local government web resources and services.